createdAt,value
2019-02-11T07:21:40.653Z,29.90
2019-02-11T07:24:14.446Z,31.20
2019-02-11T07:26:46.805Z,31.70
2019-02-11T07:29:34.650Z,32.00
2019-02-11T07:32:04.708Z,32.50
2019-02-11T07:34:35.596Z,32.20
2019-02-11T07:37:13.765Z,32.90
2019-02-11T07:40:11.026Z,33.00
2019-02-11T07:42:49.696Z,33.60
2019-02-11T07:45:41.833Z,34.50
2019-02-11T07:48:12.234Z,34.30
2019-02-11T07:50:45.360Z,35.70
2019-02-11T07:53:16.040Z,35.40
2019-02-11T07:55:46.446Z,35.30
2019-02-11T07:58:19.226Z,36.00
2019-02-11T08:00:51.510Z,36.30
2019-02-11T08:03:24.695Z,36.40
2019-02-11T08:05:55.023Z,36.30
2019-02-11T08:08:28.505Z,37.10
2019-02-11T08:13:51.243Z,36.50
2019-02-11T08:16:22.374Z,37.20
2019-02-11T08:18:58.755Z,36.40
2019-02-11T08:24:23.676Z,35.60
2019-02-11T08:26:54.047Z,34.30
2019-02-11T08:31:59.611Z,35.50
2019-02-11T08:34:30.068Z,35.90
2019-02-11T08:37:00.400Z,36.00
2019-02-11T08:39:31.267Z,36.20
2019-02-11T08:42:05.910Z,36.20
2019-02-11T08:44:36.233Z,36.30
2019-02-11T08:47:06.578Z,36.40
2019-02-11T08:49:40.561Z,36.30
2019-02-11T08:52:12.727Z,36.30
2019-02-11T08:54:43.244Z,36.40
2019-02-11T08:57:13.716Z,36.50
2019-02-11T08:59:45.884Z,36.90
2019-02-11T09:02:18.399Z,37.10
2019-02-11T09:04:48.845Z,37.00
2019-02-11T09:07:19.864Z,36.80
2019-02-11T09:09:50.378Z,37.00
2019-02-11T09:12:50.173Z,37.00
2019-02-11T09:15:29.780Z,36.60
2019-02-11T09:18:03.166Z,36.40
2019-02-11T09:20:53.371Z,36.30
2019-02-11T09:23:44.571Z,36.30
2019-02-11T09:26:15.862Z,36.40
2019-02-11T09:28:47.688Z,36.80
2019-02-11T09:31:17.859Z,36.90
2019-02-11T09:33:48.292Z,37.20
2019-02-11T09:36:18.895Z,37.20
2019-02-11T09:38:49.246Z,37.20
2019-02-11T09:41:30.116Z,37.50
2019-02-11T09:44:04.157Z,37.10
2019-02-11T09:46:34.759Z,37.60
2019-02-11T09:49:05.598Z,37.70
2019-02-11T09:51:42.394Z,37.50
2019-02-11T09:54:12.901Z,38.00
2019-02-11T09:56:43.550Z,37.70
2019-02-11T09:59:14.115Z,37.50
2019-02-11T10:01:49.364Z,38.00
2019-02-11T10:04:21.396Z,38.00
2019-02-11T10:06:52.353Z,37.40
2019-02-11T10:09:23.866Z,37.70
2019-02-11T10:11:56.769Z,39.10
2019-02-11T10:14:48.901Z,37.30
2019-02-11T10:26:03.757Z,36.60
2019-02-11T10:28:42.071Z,36.70
2019-02-11T10:31:12.619Z,36.70
2019-02-11T10:33:43.485Z,36.80
2019-02-11T10:36:14.762Z,37.40
2019-02-11T10:38:45.234Z,37.50
2019-02-11T10:41:15.832Z,37.10
2019-02-11T10:43:46.361Z,37.50
2019-02-11T10:46:22.669Z,36.90
2019-02-11T10:49:05.814Z,37.50
2019-02-11T10:52:14.563Z,36.90
2019-02-11T10:54:51.996Z,36.90
2019-02-11T10:57:45.622Z,36.90
2019-02-11T11:00:24.714Z,36.20
2019-02-11T11:02:59.967Z,36.70
2019-02-11T11:08:23.921Z,36.90
2019-02-11T11:11:02.493Z,36.80
2019-02-11T11:13:39.609Z,35.70
2019-02-11T11:16:11.203Z,34.90
2019-02-11T11:21:30.467Z,35.10
2019-02-11T11:24:11.467Z,35.40
2019-02-11T11:26:46.319Z,35.30
2019-02-11T11:32:39.397Z,35.80
2019-02-11T11:35:12.032Z,36.30
2019-02-11T11:37:42.462Z,35.70
2019-02-11T11:40:17.104Z,36.10
2019-02-11T11:42:47.521Z,36.00
2019-02-11T11:45:18.517Z,36.00
2019-02-11T11:50:24.018Z,35.70
2019-02-11T11:52:54.761Z,35.30
2019-02-11T11:55:29.143Z,35.60
2019-02-11T11:58:10.693Z,35.70
2019-02-11T12:01:19.839Z,35.50
2019-02-11T12:03:52.170Z,34.80
2019-02-11T12:09:13.370Z,34.50
2019-02-11T12:14:31.686Z,35.60
2019-02-11T12:17:07.209Z,35.30
2019-02-11T12:19:54.915Z,35.20
2019-02-11T12:22:24.854Z,36.30
2019-02-11T12:24:55.493Z,36.90
2019-02-11T12:27:30.093Z,36.60
2019-02-11T12:30:01.132Z,36.90
2019-02-11T12:32:35.314Z,36.90
2019-02-11T12:35:09.404Z,36.20
2019-02-11T12:37:45.729Z,36.40
2019-02-11T12:40:16.176Z,35.80
2019-02-11T12:42:53.051Z,35.50
2019-02-11T12:45:25.763Z,35.30
2019-02-11T12:47:56.492Z,35.40
2019-02-11T12:50:31.515Z,35.20
2019-02-11T12:53:01.926Z,35.20
2019-02-11T12:58:32.111Z,36.70
2019-02-11T13:04:20.111Z,38.80
2019-02-11T13:06:53.210Z,39.30
2019-02-11T13:09:26.440Z,39.40
2019-02-11T13:12:04.669Z,39.10
2019-02-11T13:17:33.803Z,37.90
2019-02-11T13:20:08.362Z,37.80
2019-02-11T13:22:39.105Z,37.30
2019-02-11T13:25:15.197Z,38.00
2019-02-11T13:27:45.685Z,38.40
2019-02-11T13:30:19.957Z,38.70
2019-02-11T13:38:47.706Z,39.10
2019-02-11T13:41:26.624Z,39.50
2019-02-11T13:43:57.203Z,39.80
2019-02-11T13:47:07.155Z,40.10
2019-02-11T13:52:52.662Z,39.50
2019-02-11T13:55:46.763Z,40.10
2019-02-11T14:01:08.579Z,40.30
2019-02-11T14:03:39.522Z,40.70
2019-02-11T14:06:12.168Z,42.90
2019-02-11T14:08:59.608Z,43.90
2019-02-11T14:11:27.173Z,43.50
2019-02-11T14:14:02.624Z,43.00
2019-02-11T14:16:29.873Z,42.40
2019-02-11T14:19:01.842Z,41.80
2019-02-11T14:21:39.546Z,41.90
2019-02-11T14:24:10.039Z,41.60
2019-02-11T14:26:45.230Z,41.40
2019-02-11T14:29:15.722Z,41.00
2019-02-11T14:31:48.703Z,40.60
2019-02-11T14:34:19.181Z,40.30
2019-02-11T14:36:51.556Z,40.10
2019-02-11T14:39:31.315Z,40.00
2019-02-11T14:41:57.089Z,39.90
2019-02-11T14:44:28.251Z,39.70
2019-02-11T14:47:01.087Z,39.50
2019-02-11T14:49:31.856Z,39.60
2019-02-11T14:52:03.812Z,39.60
2019-02-11T14:54:34.174Z,39.30
2019-02-11T15:00:03.634Z,38.90
2019-02-11T15:02:36.533Z,38.90
2019-02-11T15:05:10.750Z,38.90
2019-02-11T15:07:55.867Z,38.80
2019-02-11T15:10:26.530Z,38.70
2019-02-11T15:13:00.536Z,38.60
2019-02-11T15:15:32.922Z,38.40
2019-02-11T15:18:05.418Z,38.40
2019-02-11T15:20:36.075Z,38.00
2019-02-11T15:23:08.740Z,37.00
2019-02-11T15:25:38.949Z,37.10
2019-02-11T15:28:09.968Z,37.00
2019-02-11T15:30:40.315Z,36.50
2019-02-11T15:33:10.786Z,36.00
2019-02-11T15:35:42.172Z,35.70
2019-02-11T15:38:12.695Z,35.30
2019-02-11T15:40:43.127Z,35.10
2019-02-11T15:43:13.477Z,34.50
2019-02-11T15:45:43.848Z,34.50
2019-02-11T15:48:14.174Z,34.00
2019-02-11T15:50:44.787Z,33.70
2019-02-11T15:53:17.927Z,33.40
2019-02-11T15:55:48.382Z,33.30
2019-02-11T15:58:20.809Z,34.00
2019-02-11T16:00:51.215Z,33.10
2019-02-11T16:03:21.571Z,33.00
2019-02-11T16:05:51.887Z,33.10
2019-02-11T16:08:24.694Z,32.90
2019-02-11T16:11:01.221Z,32.70
2019-02-11T16:13:27.407Z,32.70
2019-02-11T16:15:57.864Z,32.60
2019-02-11T16:18:28.298Z,32.60
2019-02-11T16:20:58.690Z,32.50
2019-02-11T16:23:29.517Z,32.50
2019-02-11T16:25:59.878Z,32.40
2019-02-11T16:28:31.429Z,32.40
2019-02-11T16:31:02.001Z,32.30
2019-02-11T16:33:33.992Z,32.20
2019-02-11T16:36:04.351Z,32.10
2019-02-11T16:38:35.578Z,32.10
2019-02-11T16:41:05.887Z,31.90
2019-02-11T16:43:36.372Z,31.90
2019-02-11T16:46:06.638Z,32.00
2019-02-11T16:48:37.026Z,31.90
2019-02-11T16:51:07.499Z,31.90
2019-02-11T16:53:38.375Z,32.00
2019-02-11T16:56:08.672Z,31.90
2019-02-11T16:58:39.199Z,31.90
2019-02-11T17:01:09.621Z,31.90
2019-02-11T17:03:40.181Z,31.90
2019-02-11T17:06:10.506Z,31.90
2019-02-11T17:08:40.912Z,31.90
2019-02-11T17:11:11.573Z,31.90
2019-02-11T17:13:41.993Z,31.90
2019-02-11T17:16:12.420Z,31.80
2019-02-11T17:18:43.775Z,31.50
2019-02-11T17:21:14.070Z,31.40
2019-02-11T17:23:44.627Z,31.30
2019-02-11T17:26:14.996Z,31.20
2019-02-11T17:28:45.587Z,31.10
2019-02-11T17:31:17.178Z,31.10
2019-02-11T17:33:47.626Z,31.20
2019-02-11T17:36:17.997Z,31.30
2019-02-11T17:38:48.411Z,31.30
2019-02-11T17:41:21.377Z,31.30
2019-02-11T17:43:51.743Z,31.30
2019-02-11T17:46:22.042Z,31.20
2019-02-11T17:48:52.361Z,31.10
2019-02-11T17:51:22.799Z,31.30
2019-02-11T17:53:53.256Z,31.40
2019-02-11T17:56:23.723Z,31.60
2019-02-11T17:58:54.371Z,31.90
2019-02-11T18:01:24.921Z,31.90
2019-02-11T18:03:55.369Z,31.50
2019-02-11T18:06:25.696Z,31.90
2019-02-11T18:08:56.149Z,31.90
2019-02-11T18:11:32.580Z,31.70
2019-02-11T18:14:03.089Z,31.70
2019-02-11T18:16:33.551Z,31.80
2019-02-11T18:19:26.175Z,31.70
2019-02-11T18:21:53.159Z,31.70
2019-02-11T18:24:23.664Z,31.60
2019-02-11T18:29:26.647Z,31.60
2019-02-11T18:31:57.165Z,31.50
2019-02-11T18:34:27.603Z,31.50
2019-02-11T18:36:57.967Z,31.40
2019-02-11T18:39:28.385Z,31.40
2019-02-11T18:41:59.033Z,31.30
2019-02-11T18:44:29.415Z,31.20
2019-02-11T18:46:59.872Z,31.20
2019-02-11T18:49:34.619Z,31.20
2019-02-11T18:52:02.415Z,31.20
2019-02-11T18:54:32.827Z,31.20
2019-02-11T18:57:03.481Z,31.10
2019-02-11T18:59:33.945Z,31.10
2019-02-11T19:02:04.431Z,31.10
2019-02-11T19:04:34.795Z,31.00
2019-02-11T19:07:05.435Z,31.10
2019-02-11T19:09:35.835Z,31.00
2019-02-11T19:12:06.437Z,31.10
2019-02-11T19:14:36.976Z,31.10
2019-02-11T19:17:07.461Z,31.10
2019-02-11T19:19:43.045Z,31.00
2019-02-11T19:22:09.799Z,31.30
2019-02-11T19:24:40.194Z,31.40
2019-02-11T19:27:10.755Z,31.20
2019-02-11T19:29:41.379Z,31.40
2019-02-11T19:32:11.706Z,31.60
2019-02-11T19:34:41.986Z,31.70
2019-02-11T19:37:12.389Z,31.90
2019-02-11T19:39:42.699Z,31.90
2019-02-11T19:42:13.439Z,32.20
2019-02-11T19:44:43.775Z,32.30
2019-02-11T19:47:14.104Z,32.30
2019-02-11T19:49:51.732Z,32.30
2019-02-11T19:52:16.440Z,32.30
2019-02-11T19:54:46.797Z,32.40
2019-02-11T19:57:17.251Z,32.40
2019-02-11T19:59:47.772Z,32.30
2019-02-11T20:02:18.274Z,32.50
2019-02-11T20:04:48.895Z,32.40
2019-02-11T20:07:19.380Z,32.50
2019-02-11T20:09:49.770Z,32.40
2019-02-11T20:12:21.068Z,32.40
2019-02-11T20:14:51.443Z,32.50
2019-02-11T20:17:21.847Z,32.50
2019-02-11T20:19:59.902Z,32.50
2019-02-11T20:22:24.203Z,32.50
2019-02-11T20:24:54.512Z,32.50
2019-02-11T20:27:24.934Z,32.40
2019-02-11T20:29:55.389Z,32.40
2019-02-11T20:32:28.636Z,32.40
2019-02-11T20:34:59.028Z,32.40
2019-02-11T20:37:29.383Z,32.30
2019-02-11T20:40:03.545Z,32.30
2019-02-11T20:42:32.870Z,32.30
2019-02-11T20:45:03.271Z,32.30
2019-02-11T20:47:33.822Z,32.30
2019-02-11T20:50:09.315Z,32.20
2019-02-11T20:52:36.452Z,32.30
2019-02-11T20:55:07.532Z,32.20
2019-02-11T20:57:37.974Z,32.20
2019-02-11T21:00:15.186Z,32.20
2019-02-11T21:02:45.638Z,32.20
2019-02-11T21:05:15.963Z,32.20
2019-02-11T21:07:46.464Z,32.20
2019-02-11T21:10:17.192Z,32.20
2019-02-11T21:12:47.601Z,32.10
2019-02-11T21:15:17.730Z,32.10
2019-02-11T21:17:48.356Z,32.10
2019-02-11T21:20:21.824Z,32.10
2019-02-11T21:22:52.487Z,32.00
2019-02-11T21:25:23.931Z,32.10
2019-02-11T21:27:54.400Z,31.90
2019-02-11T21:30:24.791Z,31.90
2019-02-11T21:32:55.283Z,31.90
2019-02-11T21:35:26.030Z,31.80
2019-02-11T21:37:56.358Z,31.80
2019-02-11T21:40:26.771Z,31.80
2019-02-11T21:42:57.256Z,31.70
2019-02-11T21:45:27.728Z,31.80
2019-02-11T21:47:57.996Z,31.70
2019-02-11T21:50:28.398Z,31.60
2019-02-11T21:52:58.833Z,31.60
2019-02-11T21:55:29.314Z,31.60
2019-02-11T21:57:59.819Z,31.60
2019-02-11T22:00:30.361Z,31.60
2019-02-11T22:03:00.747Z,31.70
2019-02-11T22:05:31.110Z,31.60
2019-02-11T22:08:01.645Z,31.60
2019-02-11T22:10:32.002Z,31.60
2019-02-11T22:13:02.352Z,31.60
2019-02-11T22:15:33.622Z,31.60
2019-02-11T22:18:03.838Z,31.60
2019-02-11T22:20:34.939Z,31.60
2019-02-11T22:23:05.373Z,31.60
2019-02-11T22:25:35.670Z,31.60
2019-02-11T22:28:06.068Z,31.50
2019-02-11T22:30:36.629Z,31.60
2019-02-11T22:33:07.029Z,31.50
2019-02-11T22:35:37.412Z,31.50
2019-02-11T22:38:07.779Z,31.40
2019-02-11T22:40:38.311Z,31.60
2019-02-11T22:43:08.703Z,31.40
2019-02-11T22:45:38.958Z,31.40
2019-02-11T22:48:10.232Z,31.30
2019-02-11T22:50:43.175Z,31.30
2019-02-11T22:53:12.621Z,31.40
2019-02-11T22:55:42.957Z,31.30
2019-02-11T22:58:13.311Z,31.20
2019-02-11T23:00:55.701Z,31.20
2019-02-11T23:03:26.648Z,31.30
2019-02-11T23:05:57.057Z,31.30
2019-02-11T23:08:27.649Z,31.20
2019-02-11T23:10:58.044Z,31.10
2019-02-11T23:13:28.561Z,31.30
2019-02-11T23:15:59.047Z,31.20
2019-02-11T23:18:29.551Z,31.10
2019-02-11T23:20:59.904Z,31.10
2019-02-11T23:23:30.223Z,31.10
2019-02-11T23:26:00.623Z,31.10
2019-02-11T23:28:31.175Z,31.10
2019-02-11T23:31:01.685Z,31.00
2019-02-11T23:33:32.220Z,31.00
2019-02-11T23:36:02.641Z,31.00
2019-02-11T23:38:33.033Z,31.00
2019-02-11T23:41:03.415Z,31.00
2019-02-11T23:43:33.908Z,31.00
2019-02-11T23:46:04.332Z,31.00
2019-02-11T23:48:34.787Z,31.00
2019-02-11T23:51:05.247Z,31.00
2019-02-11T23:53:35.508Z,31.00
2019-02-11T23:56:05.927Z,30.90
2019-02-11T23:58:36.363Z,30.90
